createdAt,value
2022-08-19T00:02:50.350Z,11.18
2022-08-19T00:07:54.350Z,10.35
2022-08-19T00:12:51.938Z,10.38
2022-08-19T00:17:53.154Z,9.52
2022-08-19T00:22:56.205Z,8.57
2022-08-19T00:28:02.533Z,12.05
2022-08-19T00:33:00.835Z,12.00
2022-08-19T00:38:00.477Z,10.25
2022-08-19T00:42:58.354Z,11.27
2022-08-19T00:47:56.010Z,10.98
2022-08-19T00:52:56.374Z,10.68
2022-08-19T00:57:57.670Z,10.93
2022-08-19T01:02:55.993Z,11.45
2022-08-19T01:07:55.139Z,9.32
2022-08-19T01:12:55.647Z,11.50
2022-08-19T01:17:54.523Z,12.05
2022-08-19T01:22:55.326Z,11.32
2022-08-19T01:27:53.760Z,12.77
2022-08-19T01:32:51.759Z,12.15
2022-08-19T01:37:55.112Z,10.52
2022-08-19T01:42:53.477Z,10.65
2022-08-19T01:47:52.753Z,9.43
2022-08-19T01:53:08.005Z,10.65
2022-08-19T01:58:08.688Z,9.98
2022-08-19T02:03:07.064Z,14.15
2022-08-19T02:08:05.827Z,10.77
2022-08-19T02:13:03.642Z,11.07
2022-08-19T02:18:01.079Z,10.85
2022-08-19T02:22:59.182Z,10.35
2022-08-19T02:27:59.633Z,11.57
2022-08-19T02:33:00.485Z,11.82
2022-08-19T02:38:16.169Z,14.43
2022-08-19T02:43:14.172Z,11.65
2022-08-19T02:48:21.889Z,14.15
2022-08-19T02:53:19.474Z,11.23
2022-08-19T02:58:19.535Z,11.65
2022-08-19T03:03:19.162Z,16.10
2022-08-19T03:08:16.681Z,12.10
2022-08-19T03:13:16.262Z,15.32
2022-08-19T03:18:19.031Z,11.38
2022-08-19T03:23:18.170Z,13.00
2022-08-19T03:28:16.289Z,16.48
2022-08-19T03:33:18.190Z,11.90
2022-08-19T03:38:23.597Z,12.82
2022-08-19T03:43:20.793Z,11.95
2022-08-19T03:48:18.788Z,13.32
2022-08-19T03:53:16.145Z,12.15
2022-08-19T03:58:13.177Z,15.18
2022-08-19T04:03:11.325Z,16.00
2022-08-19T04:08:13.375Z,16.83
2022-08-19T04:13:11.167Z,15.65
2022-08-19T04:18:10.035Z,17.45
2022-08-19T04:23:10.152Z,19.42
2022-08-19T04:28:12.153Z,14.40
2022-08-19T04:40:34.940Z,18.90
2022-08-19T04:45:43.959Z,17.33
2022-08-19T04:50:43.422Z,18.38
2022-08-19T04:55:42.230Z,23.25
2022-08-19T05:00:41.062Z,19.45
2022-08-19T05:05:44.569Z,18.42
2022-08-19T05:10:47.457Z,18.85
2022-08-19T05:15:55.685Z,20.65
2022-08-19T05:21:39.465Z,20.50
2022-08-19T05:26:37.243Z,18.38
2022-08-19T05:31:42.172Z,22.40
2022-08-19T05:36:45.547Z,21.90
2022-08-19T05:41:52.173Z,18.88
2022-08-19T05:46:53.437Z,17.90
2022-08-19T05:51:52.787Z,19.80
2022-08-19T05:57:11.686Z,21.25
2022-08-19T06:02:33.880Z,30.35
2022-08-19T06:07:59.589Z,25.38
2022-08-19T06:12:57.387Z,24.50
2022-08-19T06:17:55.441Z,32.63
2022-08-19T06:23:03.933Z,19.92
2022-08-19T12:59:45.355Z,10.20
2022-08-19T13:05:23.618Z,13.30
2022-08-19T13:11:12.856Z,8.35
2022-08-19T13:21:36.822Z,9.02
2022-08-19T13:26:34.762Z,9.00
2022-08-19T13:32:43.713Z,9.90
2022-08-19T13:38:12.127Z,7.90
2022-08-19T13:43:17.796Z,7.45
2022-08-19T13:48:22.036Z,7.80
2022-08-19T13:53:20.410Z,7.78
2022-08-19T13:58:17.598Z,9.55
2022-08-19T14:03:15.291Z,13.38
2022-08-19T14:08:21.960Z,11.40
2022-08-19T14:13:24.243Z,8.63
2022-08-19T14:18:22.018Z,7.73
2022-08-19T14:23:19.430Z,8.35
2022-08-19T14:28:17.217Z,9.02
2022-08-19T14:33:16.593Z,8.93
2022-08-19T14:38:33.547Z,9.32
2022-08-19T14:43:51.107Z,8.23
2022-08-19T14:49:02.404Z,12.65
2022-08-19T14:54:12.921Z,9.00
2022-08-19T14:59:11.139Z,10.00
2022-08-19T15:04:11.899Z,12.65
2022-08-19T15:09:10.451Z,8.75
2022-08-19T15:14:38.106Z,7.72
2022-08-19T15:19:42.633Z,7.35
2022-08-19T15:24:47.934Z,8.25
2022-08-19T15:29:45.777Z,10.05
2022-08-19T15:34:43.683Z,8.35
2022-08-19T15:40:01.399Z,10.05
2022-08-19T15:45:02.532Z,13.57
2022-08-19T15:50:01.002Z,10.52
2022-08-19T15:55:00.712Z,9.88
2022-08-19T16:00:15.878Z,13.15
2022-08-19T16:05:40.507Z,8.20
2022-08-19T16:10:42.056Z,9.60
2022-08-19T16:15:48.040Z,9.48
2022-08-19T16:20:46.115Z,9.20
2022-08-19T16:25:43.097Z,8.07
2022-08-19T16:31:08.051Z,8.07
2022-08-19T16:36:13.049Z,7.75
2022-08-19T16:41:14.423Z,8.00
2022-08-19T16:46:12.083Z,11.77
2022-08-19T16:51:19.179Z,16.88
2022-08-19T16:56:20.062Z,21.48
2022-08-19T17:01:17.874Z,23.67
2022-08-19T17:06:30.215Z,13.90
2022-08-19T17:11:32.231Z,16.87
2022-08-19T17:16:31.901Z,11.82
2022-08-19T17:21:31.941Z,12.25
2022-08-19T17:26:46.479Z,13.73
2022-08-19T17:32:14.266Z,14.05
2022-08-19T17:37:51.307Z,14.68
2022-08-19T17:42:58.094Z,13.82
2022-08-19T17:47:56.836Z,11.15
2022-08-19T17:52:54.169Z,15.98
2022-08-19T17:57:51.880Z,13.55
2022-08-19T18:02:58.436Z,14.38
2022-08-19T18:08:06.093Z,12.73
2022-08-19T18:13:17.323Z,12.27
2022-08-19T18:18:18.130Z,8.45
2022-08-19T18:23:45.601Z,13.52
2022-08-19T18:28:33.248Z,11.82
2022-08-19T18:33:33.966Z,12.13
2022-08-19T18:39:06.819Z,10.98
2022-08-19T18:44:24.391Z,12.73
2022-08-19T18:49:31.618Z,12.27
2022-08-19T18:54:29.752Z,9.30
2022-08-19T18:59:29.049Z,12.07
2022-08-19T19:04:33.389Z,9.68
2022-08-19T19:09:33.365Z,7.05
2022-08-19T19:14:51.240Z,9.82
2022-08-19T19:19:50.359Z,14.07
2022-08-19T19:25:03.084Z,11.32
2022-08-19T19:30:00.346Z,11.25
2022-08-19T19:35:04.885Z,11.48
2022-08-19T19:40:02.208Z,9.27
2022-08-19T19:45:02.716Z,12.57
2022-08-19T19:50:53.306Z,8.50
2022-08-19T19:55:46.487Z,10.60
2022-08-19T20:00:44.806Z,8.02
2022-08-19T20:05:42.448Z,9.43
2022-08-19T20:10:43.818Z,15.07
2022-08-19T20:15:51.115Z,9.30
2022-08-19T20:20:51.977Z,10.93
2022-08-19T20:25:55.298Z,8.30
2022-08-19T20:30:52.966Z,8.65
2022-08-19T20:35:50.834Z,7.85
2022-08-19T20:40:47.900Z,14.43
2022-08-19T20:45:48.283Z,8.40
2022-08-19T20:50:45.217Z,8.50
2022-08-19T20:55:46.684Z,9.10
2022-08-19T21:00:45.398Z,11.95
2022-08-19T21:05:46.305Z,13.68
2022-08-19T21:10:56.584Z,11.63
2022-08-19T21:16:12.837Z,7.43
2022-08-19T21:21:12.811Z,7.55
2022-08-19T21:26:10.452Z,12.45
2022-08-19T21:31:09.925Z,12.55
2022-08-19T21:36:07.702Z,10.15
2022-08-19T21:41:06.498Z,9.38
2022-08-19T21:46:05.598Z,9.32
2022-08-19T21:51:02.687Z,6.70
2022-08-19T21:56:00.196Z,9.07
2022-08-19T22:00:58.090Z,8.95
2022-08-19T22:05:55.907Z,7.55
2022-08-19T22:10:52.958Z,8.98
2022-08-19T22:15:51.321Z,10.13
2022-08-19T22:20:48.509Z,8.35
2022-08-19T22:25:47.064Z,9.07
2022-08-19T22:30:46.441Z,7.00
2022-08-19T22:35:45.390Z,9.38
2022-08-19T22:40:46.863Z,10.48
2022-08-19T22:45:45.674Z,9.63
2022-08-19T22:51:04.196Z,9.15
2022-08-19T22:56:02.116Z,15.45
2022-08-19T23:01:03.064Z,8.43
2022-08-19T23:06:00.575Z,9.98
2022-08-19T23:10:57.953Z,9.15
2022-08-19T23:15:55.107Z,9.48
2022-08-19T23:20:54.027Z,11.05
2022-08-19T23:25:52.731Z,11.23
2022-08-19T23:30:52.773Z,10.57
2022-08-19T23:35:51.685Z,12.93
2022-08-19T23:40:49.972Z,10.38
2022-08-19T23:45:50.960Z,11.63
2022-08-19T23:50:48.624Z,12.43
2022-08-19T23:55:50.183Z,13.02
